Pagrindinis puslapis
METAR-TAF:

METAR-TAF

Oro uostai :

Dibrugarh, Indija

platuma: 27-29N, ilguma: 095-01E, Aukštis: 110 m

Dabartinis oras

Ataskaita buvo paskelbta 37 minutes, ne 03:30 UTC
Vėjas 4 kt iš Šiaurės Rytų
Temperatūra 26°C
Drėgmė 79%
Slėgis 1017 hPa
Matomumas: 5000 m
Mažai debesys ne aukštis 2500 ft
Su prošvaistėmis ne aukštis 10000 ft
migla

METAR: VEMN 130330Z 04004KT 5000 HZ FEW025 BKN100 26/22 Q1017 NOSIG

Laikas: 09:37 (04:07 UTC)

Prognozė

Ataskaita buvo paskelbta 2 valandos ir 7 minutes, ne 02:00 UTC
Prognozė galioja nuo 13 metu 03 UTC su 13 metu 12 UTC
Vėjas 3 kt iš Šiaurės Rytų
Matomumas: 5000 m
Mažai debesys ne aukštis 2500 ft
migla
Tapsmas
nuo 13 metu 04 UTC su 13 metu 10 UTC
Matomumas: 6000 m
Mažai debesys ne aukštis 2500 ft

TAF: VEMN 130200Z 1303/1312 05003KT 5000 HZ FEW025 BECMG 1304/1310 6000 FEW025

Orai ataskaitas ir orų prognozės (METAR, TAF).

turimą stotys yra geltonos ir raudonos taškus žemėlapyje.

Perkelti pele per norėdami pamatyti stoties vardą.

Tada spustelėkite, norėdami matyti oro stebėjimo ir prognozės.

Norėdami pakeisti žemėlapį: spustelėkite ant žalios mygtukų su juodo kryžiaus žemyn,; žalią mygtuką su brūkšneliu, jei norite nutolinti; arba žalių rodyklių gretimoms žemėlapius.


METAR-TAF: